Terminal Aerodrome Forecast
Issued by NWS

Current Version | Previous Version | Text Only | Print | Product List | Glossary Off
Versions: 1 2 3 4 5 6 7 8 9 10 11 12 13 14 15 16 17 18 19 20 21 22 23 24 25 26

000
FTUS41 KRLX 051139
TAFCKB
TAF
KCKB 051139Z 0512/0612 00000KT 3SM BR SCT001
     FM051400 VRB03KT P6SM SCT200
     FM052000 VRB03KT P6SM VCSH BKN100
     FM060300 00000KT 6SM BR BKN070
     FM061100 00000KT 3SM BR OVC045=

USA.gov is the U.S. government's official web portal to all federal, state and local government web resources and services.